Etusivu
METAR-TAF:

METAR-TAF

Lentoasemat :

Tšita, Venäjä

Leveyspiiri: 52-05N, Pituuspiiri: 113-29E, korkeus merenpinnasta: 685 m

Tämänhetkinen sää

Tämä raportti tehtiin 39 minuuttia sitten, kello 17.30 UTC
Tuuli 6 kn eri suunnista puuskistuen 16 kn:hen
Lämpötila -16°C
Kosteus 55%
Ilmanpaine 1019 hPa
Näkyvyys 10 km tai enemmän

METAR: UIAA 191730Z VRB03G08MPS 9999 NSC M16/M23 Q1019 R29/018165 NOSIG RMK QFE706/0941

Aika: 03:09 (18:09 UTC)

Sääennuste

Tämä raportti tehtiin 1 tunti ja 9 minuuttia sitten, kello 17.00 UTC
Ennuste voimassa 19. päivästä klo 18 UTC - 20. päivään klo 18 UTC
Tuuli 6 kn etelästä/lounaasta puuskistuen 16 kn:hen
Näkyvyys 10 km tai enemmän
Ajoittain
20. päivästä klo 03 UTC - 20. päivään klo 10 UTC
Tuuli 10 kn lännestä puuskistuen 23 kn:hen

TAF: UIAA 191700Z 1918/2018 20003G08MPS 9999 NSC TEMPO 2003/2010 27005G12MPS

Säähavainnot ja -ennusteet yli 4000 lentoasemalta (METAR- ja TAF-raportit).

Käytössä olevat sääasemat on merkitty karttaan keltaisilla ja punaisilla pisteillä.

Aseta hiiri pisteen päälle nähdäksesi sääaseman nimen.

Klikkaa sitten nähdäksesi säähavainnot ja -ennusteet.

Kartan vaihtaminen: klikkaa mustalla rastilla varustettuja vihreitä pisteitä, niin voit zoomata sisään; viivalla varustettua vihreää pistettä, niin voit zoomata ulos tai vihreitä nuolia, niin pääset viereisille kartoille.


METAR-TAF: